CheckWX is a tool to help pilots better visualize weather data.  It is not intended as a substitute for an official pre-flight weather briefing.

18:21:06 UTC

LIVO METAR
Tarvisio Airport
Tarvisio, Italy
Current

2 hours ago

LIVO 061555Z 05005KT CAVOK 15/05 Q1026 RMK SKC VIS MIN 9999
Observed
Apr-6 @ 15:55 UTC
Wind
  • 050° at 5 KTS
Visibility
10,000+ meters
Flight Rules
VFR
Cloud Levels
  • Clear skies
Temperature
15°C / 59°F
Dewpoint
C / 41°F
Humidity
51%
Altimeter
30.3" Hg
Pressure
1025.92 hPa
Previous

3 hours ago

LIVO 061455Z 09007KT CAVOK 15/02 Q1026 RMK SKC VIS MIN 9999
Observed
Apr-6 @ 14:55 UTC
Wind
  • 090° at 7 KTS
Visibility
10,000+ meters
Flight Rules
VFR
Cloud Levels
  • Clear skies
Temperature
15°C / 59°F
Dewpoint
C / 36°F
Humidity
42%
Altimeter
30.3" Hg
Pressure
1025.92 hPa
Previous

4 hours ago

LIVO 061355Z 08007KT CAVOK 15/02 Q1026 RMK SKC VIS MIN 9999
Observed
Apr-6 @ 13:55 UTC
Wind
  • 080° at 7 KTS
Visibility
10,000+ meters
Flight Rules
VFR
Cloud Levels
  • Clear skies
Temperature
15°C / 59°F
Dewpoint
C / 36°F
Humidity
42%
Altimeter
30.3" Hg
Pressure
1025.92 hPa